Time;durP1;ratioP1;P1;durP2;ratioP2;P2;SDS_P1;SDS_P2;PMS_P1;PMS_P2;Temp;Humidity;BMP_temperature;BMP_pressure;BME280_temperature;BME280_humidity;BME280_pressure;Samples;Min_cycle;Max_cycle;Signal;HPM_P1;HPM_P2
2022/07/04 00:02:14;;;;;;;9.45;3.60;;;;;;;21.48;84.80;101876.63;7391317;19;20018;-49
2022/07/04 00:04:45;;;;;;;6.65;3.78;;;;;;;21.62;84.88;101864.09;7392498;19;20021;-49
2022/07/04 00:07:14;;;;;;;9.45;3.88;;;;;;;21.58;84.31;101867.00;7390994;19;20018;-52
2022/07/04 00:09:43;;;;;;;6.90;3.70;;;;;;;21.55;85.00;101861.03;7392186;19;20025;-55
2022/07/04 00:12:12;;;;;;;9.88;3.92;;;;;;;21.58;84.09;101858.16;7391186;19;20133;-56
2022/07/04 00:14:41;;;;;;;8.65;3.50;;;;;;;21.65;84.53;101856.75;7392810;19;20019;-56
2022/07/04 00:17:10;;;;;;;5.00;3.00;;;;;;;21.59;83.97;101865.19;7392219;19;20017;-55
2022/07/04 00:19:39;;;;;;;6.25;3.45;;;;;;;21.60;84.26;101853.56;7391712;19;20399;-55
2022/07/04 00:22:11;;;;;;;8.00;3.03;;;;;;;21.62;84.64;101858.78;7390618;19;20753;-56
2022/07/04 00:24:40;;;;;;;9.98;3.28;;;;;;;21.67;82.91;101861.97;7392419;19;20483;-55
2022/07/04 00:27:09;;;;;;;6.88;2.90;;;;;;;21.59;82.28;101857.19;7391222;19;20014;-55
2022/07/04 00:29:38;;;;;;;7.97;2.95;;;;;;;21.37;82.96;101868.56;7389440;19;20132;-55
2022/07/04 00:32:08;;;;;;;7.00;2.75;;;;;;;21.39;84.93;101855.97;7390385;19;20023;-53
2022/07/04 00:34:37;;;;;;;7.25;3.40;;;;;;;21.53;83.28;101853.16;7390884;19;20014;-51
2022/07/04 00:37:06;;;;;;;6.00;3.05;;;;;;;21.56;83.35;101852.06;7391849;19;20015;-50
2022/07/04 00:39:38;;;;;;;6.07;2.72;;;;;;;21.39;83.67;101851.50;7390809;19;20019;-50
2022/07/04 00:42:08;;;;;;;10.30;3.42;;;;;;;21.07;85.73;101862.69;7390049;19;20018;-51
2022/07/04 00:44:37;;;;;;;7.40;3.05;;;;;;;21.18;85.76;101861.91;7391598;19;20122;-50
2022/07/04 00:47:08;;;;;;;7.65;2.80;;;;;;;21.18;85.00;101867.25;7391333;19;20749;-51
2022/07/04 00:49:37;;;;;;;9.57;3.28;;;;;;;20.86;87.64;101869.56;7391268;19;20018;-49
2022/07/04 00:52:07;;;;;;;6.47;3.40;;;;;;;20.85;87.84;101862.53;7390304;19;20029;-49
2022/07/04 00:54:39;;;;;;;9.15;3.50;;;;;;;21.01;86.30;101860.47;7391536;19;20469;-54
2022/07/04 00:57:09;;;;;;;6.38;3.10;;;;;;;21.03;85.92;101861.22;7391739;19;20018;-49
2022/07/04 00:59:38;;;;;;;6.03;2.75;;;;;;;20.88;86.32;101865.81;7391475;19;20360;-55
2022/07/04 01:02:07;;;;;;;6.85;2.47;;;;;;;20.95;86.73;101862.72;7389253;19;20353;-55
2022/07/04 01:04:37;;;;;;;5.10;2.90;;;;;;;20.98;86.84;101866.03;7391065;19;20014;-54
2022/07/04 01:07:07;;;;;;;7.65;3.00;;;;;;;21.01;85.91;101860.47;7390861;19;20050;-52
2022/07/04 01:09:38;;;;;;;6.95;2.80;;;;;;;20.62;88.65;101854.34;7390315;19;20153;-51
2022/07/04 01:12:08;;;;;;;5.55;2.88;;;;;;;20.83;88.30;101862.66;7389575;19;20014;-49
2022/07/04 01:14:40;;;;;;;7.68;3.30;;;;;;;20.90;88.02;101863.03;7390898;19;20022;-49
2022/07/04 01:17:08;;;;;;;10.13;3.30;;;;;;;20.99;88.78;101859.75;7390977;19;20021;-48
2022/07/04 01:19:37;;;;;;;8.32;3.58;;;;;;;21.01;89.53;101860.47;7390556;19;20470;-49
2022/07/04 01:22:10;;;;;;;7.15;4.22;;;;;;;21.06;89.55;101861.00;7388985;19;20022;-51
2022/07/04 01:24:39;;;;;;;8.10;4.40;;;;;;;21.02;89.12;101856.84;7391050;19;20014;-51
2022/07/04 01:27:08;;;;;;;7.10;4.25;;;;;;;20.97;89.64;101850.97;7390069;19;20740;-54
2022/07/04 01:29:37;;;;;;;8.27;4.72;;;;;;;21.06;90.67;101845.00;7389691;19;20023;-48
2022/07/04 01:32:07;;;;;;;8.48;4.75;;;;;;;20.86;93.20;101849.09;7389662;19;20334;-53
2022/07/04 01:34:38;;;;;;;11.02;4.72;;;;;;;20.98;93.41;101836.72;7390734;19;20549;-49
2022/07/04 01:37:10;;;;;;;11.32;4.50;;;;;;;20.98;93.64;101834.03;7390763;19;20010;-49
2022/07/04 01:39:38;;;;;;;8.23;4.82;;;;;;;21.03;93.04;101839.03;7387842;19;20030;-49
2022/07/04 01:42:08;;;;;;;12.30;5.10;;;;;;;20.99;92.99;101840.22;7389208;19;20046;-55
2022/07/04 01:44:37;;;;;;;9.45;4.55;;;;;;;20.89;92.03;101834.69;7389777;19;20018;-55
2022/07/04 01:47:06;;;;;;;8.30;5.10;;;;;;;20.98;91.82;101839.38;7389226;19;20015;-49
2022/07/04 01:49:35;;;;;;;10.25;4.88;;;;;;;21.03;90.67;101836.38;7389068;19;20023;-51
2022/07/04 01:52:05;;;;;;;9.02;5.00;;;;;;;20.95;90.04;101831.59;7388595;19;20010;-49
2022/07/04 01:54:36;;;;;;;6.60;4.20;;;;;;;20.96;90.16;101835.09;7390208;19;20021;-50
2022/07/04 01:57:06;;;;;;;8.82;4.45;;;;;;;20.96;92.29;101835.09;7389902;19;20034;-56
2022/07/04 02:02:16;;;;;;;8.82;4.90;;;;;;;20.96;91.63;101832.44;7392277;19;20022;-49
2022/07/04 02:04:45;;;;;;;10.30;4.63;;;;;;;20.87;92.96;101832.13;7396137;19;20014;-52
2022/07/04 02:07:14;;;;;;;10.43;5.00;;;;;;;20.81;93.87;101829.94;7396007;19;20115;-53
2022/07/04 02:09:46;;;;;;;10.88;5.93;;;;;;;20.68;96.18;101835.28;7395238;19;20111;-53
2022/07/04 02:14:56;;;;;;;11.13;5.65;;;;;;;20.52;98.30;101830.16;7396777;19;20022;-51
2022/07/04 02:17:25;;;;;;;14.27;6.57;;;;;;;20.57;97.84;101825.38;7396386;19;20014;-58
2022/07/04 02:19:54;;;;;;;9.40;5.60;;;;;;;20.47;99.61;101826.13;7395013;19;20018;-52
2022/07/04 02:22:23;;;;;;;9.10;5.13;;;;;;;20.53;97.87;101821.22;7396262;19;20021;-51
2022/07/04 02:24:54;;;;;;;12.07;5.70;;;;;;;20.45;98.85;101820.91;7395915;19;20018;-55
2022/07/04 02:27:23;;;;;;;7.20;4.97;;;;;;;20.53;97.88;101815.91;7394739;19;20015;-54
2022/07/04 02:29:52;;;;;;;8.07;5.22;;;;;;;20.36;99.48;101822.41;7395157;19;20010;-55
2022/07/04 02:32:21;;;;;;;8.13;5.07;;;;;;;20.50;98.37;101816.13;7399256;19;20010;-57
2022/07/04 02:34:50;;;;;;;9.15;4.70;;;;;;;20.59;96.94;101817.28;7403759;19;20015;-55
2022/07/04 02:37:19;;;;;;;15.35;5.80;;;;;;;20.62;96.14;101813.50;7399622;19;20015;-54
2022/07/04 02:39:48;;;;;;;10.85;5.97;;;;;;;20.39;98.69;101805.38;7398163;19;20013;-53
2022/07/04 02:42:19;;;;;;;9.18;5.53;;;;;;;20.23;99.71;101808.22;7395982;19;20060;-55
2022/07/04 02:44:48;;;;;;;9.02;5.05;;;;;;;20.26;99.03;101813.34;7398185;19;20224;-55
2022/07/04 02:47:17;;;;;;;8.73;5.00;;;;;;;20.23;98.38;101813.53;7397332;19;20018;-54
2022/07/04 02:49:46;;;;;;;10.50;5.47;;;;;;;20.16;100.00;101817.59;7396763;19;20033;-54
2022/07/04 02:52:15;;;;;;;9.25;5.20;;;;;;;20.21;98.49;101816.31;7395910;19;20023;-51
2022/07/04 02:54:45;;;;;;;8.13;4.90;;;;;;;20.27;98.32;101806.22;7397365;19;20029;-55
2022/07/04 02:57:14;;;;;;;9.32;5.53;;;;;;;20.34;96.98;101813.66;7397751;19;20014;-54
2022/07/04 02:59:45;;;;;;;9.30;5.53;;;;;;;20.10;98.56;101823.34;7396483;19;20495;-55
2022/07/04 03:02:15;;;;;;;11.82;5.38;;;;;;;20.17;99.63;101822.84;7395662;19;20481;-53
2022/07/04 03:04:44;;;;;;;10.57;5.53;;;;;;;20.30;99.44;101822.84;7397073;19;20026;-50
2022/07/04 03:07:13;;;;;;;7.97;5.30;;;;;;;20.35;98.43;101822.50;7396719;19;20021;-52
2022/07/04 03:09:42;;;;;;;8.75;5.53;;;;;;;20.35;97.01;101823.34;7396044;19;20007;-53
2022/07/04 03:12:11;;;;;;;10.27;6.32;;;;;;;20.43;97.87;101833.47;7394820;19;20030;-54
2022/07/04 03:14:40;;;;;;;17.77;10.25;;;;;;;20.52;99.09;101835.47;7396905;19;20010;-55
2022/07/04 03:17:12;;;;;;;14.35;9.57;;;;;;;20.48;100.00;101846.47;7397194;19;20010;-53
2022/07/04 03:19:41;;;;;;;13.07;10.10;;;;;;;20.50;100.00;101841.88;7395385;19;20371;-51
2022/07/04 03:22:09;;;;;;;17.10;10.50;;;;;;;20.56;100.00;101841.44;7394489;19;20018;-53
2022/07/04 03:24:38;;;;;;;16.08;11.60;;;;;;;20.61;100.00;101836.63;7396286;19;20081;-55
2022/07/04 03:27:08;;;;;;;19.20;11.63;;;;;;;20.60;100.00;101836.75;7396201;19;20486;-53
2022/07/04 03:29:37;;;;;;;15.90;12.10;;;;;;;20.51;100.00;101849.75;7395471;19;20376;-54
2022/07/04 03:32:07;;;;;;;16.83;12.10;;;;;;;20.48;100.00;101851.78;7394228;19;20014;-49
2022/07/04 03:34:38;;;;;;;16.83;11.48;;;;;;;20.56;100.00;101850.28;7396146;19;20015;-55
2022/07/04 03:37:07;;;;;;;17.10;12.05;;;;;;;20.56;100.00;101847.63;7396084;19;20010;-54
2022/07/04 03:39:36;;;;;;;19.92;11.88;;;;;;;20.51;100.00;101854.22;7395137;19;20029;-56
2022/07/04 03:42:05;;;;;;;16.77;12.05;;;;;;;20.51;100.00;101849.75;7394855;19;20483;-53
2022/07/04 03:44:34;;;;;;;15.85;12.02;;;;;;;20.54;100.00;101854.84;7396434;19;20014;-57
2022/07/04 03:47:04;;;;;;;14.05;11.10;;;;;;;20.54;100.00;101856.66;7395790;19;20011;-55
2022/07/04 03:49:33;;;;;;;15.55;11.23;;;;;;;20.48;100.00;101860.63;7394945;19;20026;-57
2022/07/04 03:52:05;;;;;;;13.95;11.38;;;;;;;20.50;100.00;101855.19;7394383;19;20021;-54
2022/07/04 03:54:34;;;;;;;15.50;11.20;;;;;;;20.50;100.00;101864.03;7395278;19;20014;-51
2022/07/04 03:57:03;;;;;;;18.00;11.23;;;;;;;20.50;100.00;101871.16;7395635;19;20030;-55
2022/07/04 03:59:31;;;;;;;12.18;10.55;;;;;;;20.54;100.00;101878.81;7393140;19;20014;-51
2022/07/04 04:02:00;;;;;;;14.15;11.02;;;;;;;20.58;100.00;101882.97;7394195;19;20018;-52
2022/07/04 04:07:13;;;;;;;17.15;11.15;;;;;;;20.50;100.00;101882.69;7395385;19;20022;-54
2022/07/04 04:09:42;;;;;;;17.38;12.20;;;;;;;20.48;100.00;101881.06;7395049;19;20032;-54
2022/07/04 04:12:11;;;;;;;19.02;12.40;;;;;;;20.51;100.00;101891.50;7393726;19;20509;-54
2022/07/04 04:14:40;;;;;;;19.33;12.30;;;;;;;20.60;100.00;101895.34;7394544;19;20024;-53
2022/07/04 04:17:09;;;;;;;17.65;12.52;;;;;;;20.36;100.00;101890.75;7400696;19;20011;-55
2022/07/04 04:19:38;;;;;;;16.77;12.73;;;;;;;20.19;100.00;101890.09;7394690;19;20014;-52
2022/07/04 04:22:07;;;;;;;15.93;12.38;;;;;;;20.19;100.00;101886.59;7393641;19;20022;-52
2022/07/04 04:24:39;;;;;;;16.95;11.70;;;;;;;19.88;100.00;101888.66;7393001;19;20010;-55
2022/07/04 04:27:08;;;;;;;16.63;11.90;;;;;;;20.11;100.00;101889.75;7395605;19;20474;-52
2022/07/04 04:29:37;;;;;;;17.67;11.38;;;;;;;20.22;100.00;101900.53;7391831;19;20018;-54
2022/07/04 04:32:06;;;;;;;15.20;10.68;;;;;;;19.86;100.00;101896.75;7393492;19;20034;-57
2022/07/04 04:34:35;;;;;;;17.27;11.70;;;;;;;20.21;100.00;101887.34;7394485;19;20015;-53
2022/07/04 04:37:05;;;;;;;15.82;10.60;;;;;;;20.31;100.00;101893.72;7395044;19;20015;-53
2022/07/04 04:39:33;;;;;;;13.23;10.23;;;;;;;20.40;100.00;101887.78;7393665;19;20010;-52
2022/07/04 04:42:06;;;;;;;15.77;10.43;;;;;;;20.47;100.00;101898.00;7392893;19;20018;-53
2022/07/04 04:44:34;;;;;;;13.75;10.50;;;;;;;20.55;100.00;101888.53;7393576;19;20022;-52
2022/07/04 04:47:03;;;;;;;14.20;9.63;;;;;;;20.58;99.86;101888.31;7394607;19;20098;-50
2022/07/04 04:49:32;;;;;;;13.68;9.85;;;;;;;20.51;100.00;101889.69;7391508;19;20021;-54
2022/07/04 04:52:01;;;;;;;13.82;8.85;;;;;;;20.16;100.00;101886.78;7392311;19;20050;-52
2022/07/04 04:54:30;;;;;;;13.25;9.52;;;;;;;20.27;100.00;101878.91;7393908;19;20019;-55
2022/07/04 04:56:59;;;;;;;11.45;8.68;;;;;;;20.35;100.00;101883.75;7393331;19;20019;-52
2022/07/04 04:59:31;;;;;;;10.90;8.80;;;;;;;20.44;100.00;101884.91;7393413;19;20660;-55
2022/07/04 05:02:01;;;;;;;11.63;9.43;;;;;;;20.61;100.00;101883.75;7392915;19;20120;-50
2022/07/04 05:04:30;;;;;;;12.35;8.55;;;;;;;20.59;99.03;101875.84;7392005;19;20018;-53
2022/07/04 05:06:59;;;;;;;13.45;8.02;;;;;;;20.66;99.23;101870.94;7393849;19;20014;-56
2022/07/04 05:09:28;;;;;;;14.07;8.75;;;;;;;20.74;98.54;101881.94;7391008;19;20015;-56
2022/07/04 05:11:57;;;;;;;14.18;9.15;;;;;;;20.69;98.85;101878.72;7392297;19;20022;-52
2022/07/04 05:14:26;;;;;;;15.68;8.20;;;;;;;20.65;98.70;101869.25;7397007;19;20018;-55
2022/07/04 05:16:57;;;;;;;12.05;8.38;;;;;;;20.73;99.38;101875.78;7390708;19;20543;-55
2022/07/04 05:19:26;;;;;;;11.80;8.25;;;;;;;20.87;98.41;101873.94;7393382;19;20014;-51
2022/07/04 05:21:55;;;;;;;20.25;9.40;;;;;;;20.80;98.44;101884.16;7392045;19;20069;-54
2022/07/04 05:24:24;;;;;;;17.85;9.30;;;;;;;20.82;98.68;101876.94;7395504;19;20029;-55
2022/07/04 05:26:53;;;;;;;11.73;8.02;;;;;;;20.75;98.65;101883.66;7393560;19;20783;-54
2022/07/04 05:29:22;;;;;;;21.70;9.75;;;;;;;20.81;99.23;101888.53;7391119;19;20025;-53
2022/07/04 05:31:50;;;;;;;17.02;8.70;;;;;;;20.91;98.69;101889.56;7391373;19;20015;-50
2022/07/04 05:34:22;;;;;;;13.02;9.00;;;;;;;20.79;99.01;101892.25;7392808;19;20011;-53
2022/07/04 05:36:51;;;;;;;12.80;8.55;;;;;;;20.90;98.46;101892.34;7391315;19;20014;-49
2022/07/04 05:39:20;;;;;;;11.13;8.05;;;;;;;20.74;98.67;101897.91;7392701;19;20018;-53
2022/07/04 05:41:49;;;;;;;17.17;9.93;;;;;;;20.60;100.00;101898.00;7392474;19;20022;-51
2022/07/04 05:44:17;;;;;;;11.73;8.85;;;;;;;20.41;100.00;101896.63;7392899;19;20014;-50
2022/07/04 05:46:46;;;;;;;16.58;10.27;;;;;;;20.61;100.00;101911.22;7391602;19;20025;-53
2022/07/04 05:49:15;;;;;;;15.02;9.50;;;;;;;20.62;100.00;101909.38;7391044;19;20367;-52
2022/07/04 05:51:47;;;;;;;16.15;9.77;;;;;;;20.61;100.00;101910.38;7391214;19;20015;-50
2022/07/04 05:54:15;;;;;;;16.23;9.35;;;;;;;20.43;100.00;101909.81;7392877;19;20122;-51
2022/07/04 05:56:44;;;;;;;15.68;8.30;;;;;;;20.45;100.00;101918.56;7391678;19;20486;-53
2022/07/04 05:59:13;;;;;;;9.07;7.18;;;;;;;20.51;100.00;101915.47;7392047;19;20006;-50
2022/07/04 06:01:42;;;;;;;13.32;8.60;;;;;;;20.66;100.00;101913.53;7392153;19;20352;-53
2022/07/04 06:04:11;;;;;;;10.77;7.18;;;;;;;20.97;100.00;101924.75;7393536;19;20014;-53
2022/07/04 06:06:40;;;;;;;24.05;8.20;;;;;;;21.27;100.00;101919.88;7393165;19;20010;-52
2022/07/04 06:09:12;;;;;;;11.27;7.03;;;;;;;21.17;100.00;101924.16;7391744;19;20014;-52
2022/07/04 06:11:40;;;;;;;17.45;6.72;;;;;;;21.27;100.00;101919.03;7392084;19;20019;-56
2022/07/04 06:14:09;;;;;;;14.05;6.72;;;;;;;21.09;100.00;101916.75;7393660;19;20030;-52
2022/07/04 06:16:38;;;;;;;11.38;6.65;;;;;;;20.97;100.00;101919.41;7392476;19;20014;-53
2022/07/04 06:19:08;;;;;;;12.95;6.35;;;;;;;20.85;100.00;101918.50;7391909;19;20022;-50
2022/07/04 06:21:37;;;;;;;12.77;6.68;;;;;;;20.62;100.00;101914.72;7392173;19;20025;-52
2022/07/04 06:24:06;;;;;;;10.15;6.43;;;;;;;20.79;100.00;101921.56;7392830;19;20034;-54
2022/07/04 06:26:38;;;;;;;10.30;6.60;;;;;;;20.58;100.00;101920.25;7393098;19;20359;-51
2022/07/04 06:29:07;;;;;;;11.52;7.07;;;;;;;20.83;100.00;101920.38;7392312;19;20014;-55
2022/07/04 06:31:36;;;;;;;49.33;13.23;;;;;;;21.01;99.02;101915.59;7392943;19;20466;-50
2022/07/04 06:36:48;;;;;;;14.93;7.47;;;;;;;21.40;95.98;101909.16;7392466;19;20488;-54
2022/07/04 06:39:16;;;;;;;9.93;7.53;;;;;;;21.38;93.16;101907.59;7391505;19;20014;-49
2022/07/04 06:41:48;;;;;;;11.63;6.95;;;;;;;21.17;94.89;101918.00;7391498;19;20030;-57
2022/07/04 06:44:17;;;;;;;17.23;7.90;;;;;;;21.39;96.20;101917.28;7392938;19;20021;-54
2022/07/04 06:46:46;;;;;;;17.98;8.05;;;;;;;21.57;93.56;101912.47;7393156;19;20025;-51
2022/07/04 06:49:15;;;;;;;18.33;8.18;;;;;;;21.84;91.19;101906.88;7398798;19;20011;-55
2022/07/04 06:51:44;;;;;;;15.70;8.02;;;;;;;22.01;90.98;101918.09;7399219;19;20010;-52
2022/07/04 06:54:12;;;;;;;15.93;7.50;;;;;;;21.70;90.68;101918.59;7400668;19;20018;-51
2022/07/04 06:56:41;;;;;;;14.00;7.00;;;;;;;21.00;95.09;101914.72;7400388;19;20021;-57
2022/07/04 06:59:13;;;;;;;13.13;7.65;;;;;;;20.93;97.56;101921.44;7400479;19;20017;-53
2022/07/04 07:01:42;;;;;;;12.05;6.95;;;;;;;20.94;98.22;101911.66;7399968;19;20022;-55
2022/07/04 07:04:11;;;;;;;19.00;7.93;;;;;;;21.25;96.22;101903.16;7401721;19;20021;-57
2022/07/04 07:06:40;;;;;;;12.88;7.40;;;;;;;21.06;97.71;101897.44;7401684;19;20011;-50
2022/07/04 07:09:08;;;;;;;23.20;9.63;;;;;;;21.39;96.19;101898.63;7399771;19;20022;-53
2022/07/04 07:11:37;;;;;;;16.88;8.63;;;;;;;21.61;94.43;101900.59;7400257;19;20054;-55
2022/07/04 07:14:06;;;;;;;13.48;7.78;;;;;;;21.89;92.67;101903.88;7400085;19;20015;-57
2022/07/04 07:16:38;;;;;;;12.35;8.30;;;;;;;21.50;93.46;101917.34;7400671;19;20415;-54
2022/07/04 07:19:06;;;;;;;14.85;8.95;;;;;;;21.70;93.83;101913.25;7400350;19;20026;-55
2022/07/04 07:21:35;;;;;;;15.20;8.07;;;;;;;21.65;96.70;101918.09;7400570;19;20014;-51
2022/07/04 07:24:04;;;;;;;12.68;8.68;;;;;;;21.63;97.28;101911.16;7399172;19;20026;-50
2022/07/04 07:26:33;;;;;;;13.52;9.13;;;;;;;21.71;95.21;101909.63;7399102;19;20019;-52
2022/07/04 07:29:02;;;;;;;20.90;9.80;;;;;;;22.02;96.01;101904.66;7397555;19;20010;-53
2022/07/04 07:31:31;;;;;;;15.40;8.82;;;;;;;21.59;98.23;101913.19;7396770;19;20022;-51
2022/07/04 07:34:03;;;;;;;16.70;9.68;;;;;;;21.91;95.25;101904.63;7397283;19;20514;-50
2022/07/04 07:36:31;;;;;;;12.52;8.57;;;;;;;22.05;93.79;101904.44;7398248;19;20021;-50
2022/07/04 07:39:00;;;;;;;16.30;9.82;;;;;;;22.18;96.16;101907.00;7398015;19;20017;-50
2022/07/04 07:41:29;;;;;;;12.82;8.85;;;;;;;22.43;94.05;101897.97;7396500;19;20029;-52
2022/07/04 07:43:58;;;;;;;16.35;8.98;;;;;;;22.25;94.45;101900.25;7400030;19;20018;-53
2022/07/04 07:46:27;;;;;;;15.77;8.55;;;;;;;22.17;95.42;101897.28;7400614;19;20013;-53
2022/07/04 07:48:56;;;;;;;18.00;9.27;;;;;;;22.30;95.94;101884.69;7400364;19;20378;-54
2022/07/04 07:51:27;;;;;;;16.52;9.23;;;;;;;22.23;96.08;101882.63;7398898;19;20014;-50
2022/07/04 07:53:56;;;;;;;17.02;9.82;;;;;;;21.70;97.62;101883.91;7399251;19;20068;-49
2022/07/04 07:56:25;;;;;;;15.68;9.38;;;;;;;21.93;99.60;101884.84;7397616;19;20025;-49
2022/07/04 07:58:54;;;;;;;16.48;9.73;;;;;;;22.26;99.09;101880.56;7396805;19;20100;-55
2022/07/04 08:01:23;;;;;;;13.52;9.82;;;;;;;22.62;95.85;101881.38;7396262;19;20022;-55
2022/07/04 08:06:36;;;;;;;17.23;10.20;;;;;;;22.83;95.08;101890.50;7396551;19;20019;-55
2022/07/04 08:09:06;;;;;;;19.90;11.63;;;;;;;22.89;94.17;101893.50;7396860;19;20022;-49
2022/07/04 08:11:35;;;;;;;16.67;9.93;;;;;;;22.86;93.55;101893.75;7393961;19;20017;-50
2022/07/04 08:14:06;;;;;;;16.98;9.77;;;;;;;22.59;96.58;101902.97;7396957;19;20022;-51
2022/07/04 08:16:35;;;;;;;18.83;9.90;;;;;;;22.46;97.27;101900.41;7396774;19;20018;-51
2022/07/04 08:19:05;;;;;;;15.95;9.07;;;;;;;22.67;98.62;101902.38;7393843;19;20018;-50
2022/07/04 08:21:37;;;;;;;18.60;10.55;;;;;;;22.86;96.24;101907.13;7395661;19;20638;-53
2022/07/04 08:24:06;;;;;;;18.30;10.80;;;;;;;22.91;96.39;101904.06;7396199;19;20010;-53
2022/07/04 08:26:35;;;;;;;15.75;9.63;;;;;;;22.88;94.69;101907.88;7396011;19;20015;-54
2022/07/04 08:29:04;;;;;;;20.58;11.23;;;;;;;23.02;93.66;101905.91;7395254;19;20022;-52
2022/07/04 08:31:33;;;;;;;16.85;10.77;;;;;;;23.05;93.30;101911.00;7393185;19;20022;-60
2022/07/04 08:34:02;;;;;;;17.48;10.60;;;;;;;23.08;95.29;101911.63;7396657;19;20010;-58
2022/07/04 08:36:31;;;;;;;20.88;11.27;;;;;;;23.46;93.84;101912.19;7392845;19;20010;-58
2022/07/04 08:39:03;;;;;;;17.50;11.75;;;;;;;23.36;93.17;101912.06;7392556;19;20014;-55
2022/07/04 08:41:38;;;;;;;18.98;12.27;;;;;;;23.49;92.80;101915.44;7392442;19;20019;-57
2022/07/04 08:44:10;;;;;;;18.83;11.95;;;;;;;23.34;90.50;101914.03;7392337;19;20030;-56
2022/07/04 08:46:42;;;;;;;17.45;12.15;;;;;;;23.23;92.76;101916.72;7397895;19;20025;-58
2022/07/04 08:49:16;;;;;;;18.67;12.45;;;;;;;23.25;91.62;101922.78;7392409;19;20046;-53
2022/07/04 08:51:55;;;;;;;15.35;12.52;;;;;;;22.96;94.13;101926.78;7391669;19;20342;-54
2022/07/04 08:59:51;;;;;;;17.87;10.87;;;;;;;23.01;93.23;101918.44;7392761;19;20035;-56
2022/07/04 09:02:22;;;;;;;18.13;10.98;;;;;;;23.09;93.90;101926.66;7394385;19;20015;-56
2022/07/04 09:04:52;;;;;;;21.17;12.18;;;;;;;23.46;92.81;101925.56;7393886;19;20033;-54
2022/07/04 09:07:22;;;;;;;18.05;10.05;;;;;;;23.59;92.71;101917.38;7391797;19;20014;-58
2022/07/04 09:09:54;;;;;;;18.20;10.00;;;;;;;23.89;90.31;101927.38;7389520;19;20115;-58
2022/07/04 09:12:23;;;;;;;21.98;11.15;;;;;;;23.95;89.77;101926.03;7393524;19;20011;-59
2022/07/04 09:14:52;;;;;;;16.23;10.90;;;;;;;23.60;93.26;101927.09;7396487;19;20010;-57
2022/07/04 09:17:22;;;;;;;19.25;10.40;;;;;;;23.59;94.25;101917.38;7392496;19;20462;-57
2022/07/04 09:20:16;;;;;;;15.20;9.30;;;;;;;23.47;94.63;101916.56;7390487;19;20011;-53
2022/07/04 09:22:45;;;;;;;19.25;10.27;;;;;;;23.79;92.55;101910.38;7390004;19;20021;-52
2022/07/04 09:25:17;;;;;;;17.15;10.60;;;;;;;23.88;87.61;101916.81;7391469;19;20333;-56
2022/07/04 09:27:49;;;;;;;15.05;10.75;;;;;;;24.10;85.56;101916.69;7391392;19;20026;-54
2022/07/04 09:30:19;;;;;;;15.75;11.02;;;;;;;23.77;85.92;101923.88;7390218;19;20026;-57
2022/07/04 09:32:51;;;;;;;16.08;10.10;;;;;;;23.54;88.09;101919.56;7390882;19;20065;-55
2022/07/04 09:35:22;;;;;;;17.70;9.97;;;;;;;23.67;86.09;101914.91;7391444;19;20030;-58
2022/07/04 09:37:53;;;;;;;15.20;10.63;;;;;;;23.28;89.79;101912.72;7392207;19;20025;-58
2022/07/04 09:40:30;;;;;;;17.13;11.13;;;;;;;23.18;89.81;101925.09;7390926;19;20022;-57
2022/07/04 09:43:01;;;;;;;23.75;10.98;;;;;;;23.43;90.18;101923.13;7389569;19;20513;-57
2022/07/04 09:45:30;;;;;;;17.73;11.98;;;;;;;23.31;89.62;101912.47;7390971;19;20070;-57
2022/07/04 09:48:01;;;;;;;20.00;13.95;;;;;;;23.26;92.55;101906.63;7391485;19;20078;-57
2022/07/04 09:50:30;;;;;;;19.45;11.90;;;;;;;23.43;90.82;101915.09;7389609;19;20022;-58
2022/07/04 09:53:01;;;;;;;20.63;12.18;;;;;;;23.37;90.93;101908.44;7392892;19;20022;-57
2022/07/04 09:55:34;;;;;;;16.83;10.77;;;;;;;23.77;87.11;101918.53;7393129;19;20498;-57
2022/07/04 09:58:05;;;;;;;12.70;5.88;;;;;;;23.79;83.86;101916.56;7406528;19;20023;-53
2022/07/04 10:00:36;;;;;;;10.38;5.40;;;;;;;24.29;82.17;101907.94;7393046;19;20018;-57
2022/07/04 10:03:20;;;;;;;12.32;5.13;;;;;;;24.24;76.90;101912.00;7390004;19;20081;-56
2022/07/04 10:05:53;;;;;;;10.00;5.22;;;;;;;24.18;78.10;101914.19;7392571;19;20018;-57
2022/07/04 10:08:22;;;;;;;;;;;;;;;24.11;80.76;101913.03;7390783;19;20014;-56
2022/07/04 10:10:59;;;;;;;10.15;5.68;;;;;;;24.18;76.84;101900.81;7389503;19;19918;-57
2022/07/04 10:13:28;;;;;;;13.48;5.60;;;;;;;24.31;78.06;101903.28;7390204;19;20014;-55
2022/07/04 10:15:57;;;;;;;12.23;5.60;;;;;;;24.47;77.94;101902.84;7390635;19;20015;-55
2022/07/04 10:18:27;;;;;;;11.48;5.30;;;;;;;24.29;74.41;101902.59;7389368;19;20018;-58
2022/07/04 10:20:57;;;;;;;10.50;4.80;;;;;;;24.37;72.58;101893.88;7390450;19;20042;-57
2022/07/04 10:23:31;;;;;;;9.07;4.18;;;;;;;24.82;69.52;101898.09;7396110;19;20021;-58
2022/07/04 10:26:02;;;;;;;8.13;3.75;;;;;;;24.87;71.45;101896.72;7397880;19;20019;-56
2022/07/04 10:28:32;;;;;;;10.13;4.10;;;;;;;25.14;70.62;101899.75;7397950;19;20023;-58
2022/07/04 10:31:02;;;;;;;8.18;3.78;;;;;;;25.38;67.30;101894.88;7395026;19;20022;-59
2022/07/04 10:33:32;;;;;;;10.23;3.78;;;;;;;25.56;62.58;101899.53;7399645;19;20017;-59
2022/07/04 10:36:04;;;;;;;8.23;3.53;;;;;;;25.32;61.63;101905.31;7401421;19;20010;-57
2022/07/04 10:38:34;;;;;;;6.07;3.50;;;;;;;25.15;63.18;101896.91;7396658;19;20125;-59
2022/07/04 10:41:08;;;;;;;5.95;2.88;;;;;;;25.15;60.09;101896.91;7397256;19;20019;-56
2022/07/04 10:43:53;;;;;;;5.15;2.67;;;;;;;24.77;62.37;101900.31;7396408;19;20014;-58
2022/07/04 10:46:27;;;;;;;5.35;2.50;;;;;;;24.57;64.77;101892.16;7398771;19;20014;-58
2022/07/04 10:48:58;;;;;;;5.63;2.75;;;;;;;24.43;64.09;101900.53;7395449;19;20014;-60
2022/07/04 10:51:41;;;;;;;7.90;3.05;;;;;;;24.27;65.37;101901.00;7397303;19;20026;-57
2022/07/04 10:54:12;;;;;;;6.53;3.40;;;;;;;24.24;64.36;101898.59;7397249;19;20751;-56
2022/07/04 10:56:50;;;;;;;6.13;3.53;;;;;;;24.12;65.62;101904.03;7402605;19;20034;-59
2022/07/04 10:59:22;;;;;;;8.27;3.20;;;;;;;24.23;69.28;101897.75;7404224;19;20019;-57
2022/07/04 11:01:54;;;;;;;8.25;3.42;;;;;;;24.35;66.00;101910.09;7398552;19;20018;-57
2022/07/04 11:04:48;;;;;;;7.25;3.30;;;;;;;24.50;66.25;101894.53;7401019;19;20026;-56
2022/07/04 11:07:18;;;;;;;6.38;2.97;;;;;;;24.82;65.04;101903.44;7396685;19;20014;-59
2022/07/04 11:09:47;;;;;;;4.50;2.90;;;;;;;24.86;60.30;101894.16;7397542;19;20374;-59
2022/07/04 11:12:19;;;;;;;5.78;3.25;;;;;;;24.86;59.07;101894.16;7402091;19;20006;-55
2022/07/04 11:14:49;;;;;;;9.57;3.38;;;;;;;24.98;60.46;101892.22;7396048;19;20025;-53
2022/07/04 11:17:22;;;;;;;11.32;3.55;;;;;;;24.93;58.61;101889.09;7399746;19;20041;-55
2022/07/04 11:20:01;;;;;;;4.65;3.10;;;;;;;25.01;59.92;101887.41;7397428;19;20022;-59
2022/07/04 11:22:31;;;;;;;7.63;3.13;;;;;;;25.21;57.54;101876.75;7395001;19;20019;-58
2022/07/04 11:25:00;;;;;;;6.28;3.70;;;;;;;25.37;58.21;101876.22;7397780;19;20019;-57
2022/07/04 11:27:31;;;;;;;5.28;2.83;;;;;;;25.60;54.03;101884.84;7395831;19;20018;-58
2022/07/04 11:30:00;;;;;;;7.18;3.33;;;;;;;25.66;53.79;101881.63;7394411;19;20014;-58
2022/07/04 11:32:34;;;;;;;8.05;3.03;;;;;;;26.39;52.56;101877.56;7394262;19;20034;-59
2022/07/04 11:35:03;;;;;;;5.03;2.50;;;;;;;26.53;50.45;101865.50;7398749;19;20095;-59
2022/07/04 11:37:32;;;;;;;7.15;3.15;;;;;;;27.17;49.76;101863.78;7397660;19;20022;-58
2022/07/04 11:45:47;;;;;;;7.80;2.70;;;;;;;28.64;47.89;101862.44;7398399;19;20043;-59
2022/07/04 11:48:23;;;;;;;5.05;2.67;;;;;;;28.45;44.78;101871.59;7403481;19;20108;-49
2022/07/04 11:50:52;;;;;;;9.43;2.80;;;;;;;28.47;43.22;101866.88;7405847;19;20011;-55
2022/07/04 11:53:22;;;;;;;11.88;3.13;;;;;;;28.30;43.98;101864.09;7391892;19;20026;-56
2022/07/04 11:55:55;;;;;;;5.93;2.85;;;;;;;29.00;42.40;101875.75;7399264;19;20022;-59